Time;durP1;ratioP1;P1;durP2;ratioP2;P2;SDS_P1;SDS_P2;PMS_P1;PMS_P2;Temp;Humidity;BMP_temperature;BMP_pressure;BME280_temperature;BME280_humidity;BME280_pressure;Samples;Min_cycle;Max_cycle;Signal;HPM_P1;HPM_P2
2021/12/23 00:00:21;;;;;;;37.22;20.60;;;;;;;-6.29;100.00;93932.25;5029260;28;20053;-80
2021/12/23 00:02:49;;;;;;;38.03;22.17;;;;;;;-6.24;100.00;93953.59;5029391;28;20056;-80
2021/12/23 00:05:16;;;;;;;40.00;21.80;;;;;;;-6.31;100.00;93950.66;5029307;28;20136;-80
2021/12/23 00:07:43;;;;;;;39.97;23.02;;;;;;;-6.45;100.00;93930.63;5029518;28;20049;-81
2021/12/23 00:10:10;;;;;;;41.00;23.27;;;;;;;-6.55;100.00;93922.06;5029460;28;20049;-81
2021/12/23 00:12:43;;;;;;;45.13;22.73;;;;;;;-6.74;100.00;93903.13;5029124;28;20904;-81
2021/12/23 00:15:22;;;;;;;49.17;30.35;;;;;;;-6.71;100.00;93916.25;5029274;28;20418;-81
2021/12/23 00:17:58;;;;;;;46.20;24.42;;;;;;;-6.60;100.00;93943.13;5029206;28;20567;-81
2021/12/23 00:26:03;;;;;;;39.03;22.42;;;;;;;-7.10;100.00;93897.59;5018380;28;20056;-81
2021/12/23 00:28:32;;;;;;;38.60;21.67;;;;;;;-7.48;100.00;93846.44;5029310;28;20065;-82
2021/12/23 00:31:00;;;;;;;40.83;21.50;;;;;;;-7.16;100.00;93905.44;5029453;28;20052;-82
2021/12/23 00:33:29;;;;;;;46.83;23.05;;;;;;;-6.86;100.00;93952.06;5029850;28;20049;-82
2021/12/23 00:35:57;;;;;;;42.60;22.55;;;;;;;-7.26;100.00;93885.19;5029327;28;20063;-82
2021/12/23 00:38:28;;;;;;;45.08;25.40;;;;;;;-6.92;100.00;93937.44;5029256;28;20052;-82
2021/12/23 00:40:57;;;;;;;39.72;22.55;;;;;;;-7.72;100.00;93813.66;5031633;28;20065;-83
2021/12/23 00:43:25;;;;;;;35.05;19.27;;;;;;;-7.44;100.00;93859.53;5033150;28;20041;-83
2021/12/23 00:45:52;;;;;;;34.20;20.17;;;;;;;-6.90;100.00;93948.94;5033173;28;20388;-83
2021/12/23 00:48:19;;;;;;;35.33;19.13;;;;;;;-7.03;100.00;93928.84;5019798;28;20050;-83
2021/12/23 00:50:48;;;;;;;35.92;19.73;;;;;;;-6.95;100.00;93945.09;5013012;28;20054;-82
2021/12/23 00:53:18;;;;;;;31.73;19.23;;;;;;;-7.42;100.00;93886.03;5012936;28;20433;-83
2021/12/23 00:55:47;;;;;;;35.10;19.92;;;;;;;-7.52;100.00;93864.94;5013347;28;20049;-83
2021/12/23 00:58:14;;;;;;;32.42;19.38;;;;;;;-7.53;100.00;93879.13;5013152;28;20539;-83
2021/12/23 01:00:41;;;;;;;34.80;19.73;;;;;;;-7.12;100.00;93926.88;5012576;28;20409;-83
2021/12/23 01:03:08;;;;;;;33.22;18.27;;;;;;;-7.87;100.00;93818.56;5013202;28;20046;-83
2021/12/23 01:05:35;;;;;;;33.92;18.88;;;;;;;-7.55;100.00;93865.91;5013060;28;20050;-83
2021/12/23 01:08:04;;;;;;;35.72;20.27;;;;;;;-7.10;100.00;93932.56;5012592;28;20058;-84
2021/12/23 01:10:31;;;;;;;35.88;19.77;;;;;;;-7.19;100.00;93933.09;5013488;28;20061;-84
2021/12/23 01:13:02;;;;;;;41.38;23.63;;;;;;;-7.72;100.00;93846.88;5013093;28;20057;-84
2021/12/23 01:18:19;;;;;;;37.08;21.95;;;;;;;-7.26;100.00;93930.91;5013267;28;20057;-83
2021/12/23 01:20:52;;;;;;;46.25;25.60;;;;;;;-7.32;100.00;93931.25;5013362;28;20046;-83
2021/12/23 01:23:23;;;;;;;58.58;30.67;;;;;;;-7.42;100.00;93933.44;5012793;28;20054;-83
2021/12/23 01:25:52;;;;;;;51.97;26.58;;;;;;;-7.66;100.00;93895.63;5012760;28;20065;-83
2021/12/23 01:28:19;;;;;;;49.80;27.15;;;;;;;-7.45;100.00;93933.59;5012185;28;20145;-83
2021/12/23 01:30:46;;;;;;;44.28;24.77;;;;;;;-8.11;100.00;93845.63;5012551;28;20041;-83
2021/12/23 01:33:14;;;;;;;44.72;25.05;;;;;;;-8.17;100.00;93841.78;5018849;28;20061;-83
2021/12/23 01:35:44;;;;;;;47.08;26.48;;;;;;;-7.53;100.00;93925.72;5032123;28;20080;-82
2021/12/23 01:38:11;;;;;;;59.38;30.73;;;;;;;-7.74;100.00;93923.47;5020155;28;20077;-83
2021/12/23 01:40:40;;;;;;;54.60;30.83;;;;;;;-7.88;100.00;93886.78;5012835;28;20085;-82
2021/12/23 01:43:07;;;;;;;51.72;28.67;;;;;;;-8.68;100.00;93758.03;5013055;28;20054;-82
2021/12/23 01:45:35;;;;;;;55.10;31.20;;;;;;;-7.72;100.00;93893.47;5012183;28;20767;-82
2021/12/23 01:48:02;;;;;;;53.47;30.23;;;;;;;-7.58;100.00;93912.69;5022459;28;20041;-82
2021/12/23 01:50:33;;;;;;;56.58;30.02;;;;;;;-7.58;100.00;93912.69;5031770;28;20057;-82
2021/12/23 01:53:00;;;;;;;55.15;31.35;;;;;;;-8.36;100.00;93807.84;5030773;28;20128;-82
2021/12/23 01:55:29;;;;;;;53.45;30.33;;;;;;;-7.71;100.00;93895.88;5031564;28;20053;-82
2021/12/23 01:57:58;;;;;;;49.70;28.83;;;;;;;-7.78;100.00;93880.44;5031886;28;20519;-82
2021/12/23 02:00:29;;;;;;;53.05;29.13;;;;;;;-7.78;100.00;93892.13;5031381;28;20485;-82
2021/12/23 02:02:57;;;;;;;55.40;30.55;;;;;;;-7.66;100.00;93918.91;5031736;28;20064;-82
2021/12/23 02:05:24;;;;;;;58.92;33.45;;;;;;;-7.97;100.00;93880.59;5031614;28;20460;-82
2021/12/23 02:07:51;;;;;;;57.00;31.35;;;;;;;-8.03;100.00;93873.44;5031299;28;20412;-82
2021/12/23 02:10:19;;;;;;;52.78;29.92;;;;;;;-7.85;100.00;93891.63;5030987;28;20489;-82
2021/12/23 02:12:48;;;;;;;53.22;30.10;;;;;;;-8.04;100.00;93859.38;5032012;28;20045;-82
2021/12/23 02:15:18;;;;;;;48.05;29.52;;;;;;;-7.93;100.00;93889.53;5031168;28;20440;-82
2021/12/23 02:17:47;;;;;;;54.78;31.88;;;;;;;-7.84;100.00;93903.22;5031528;28;20047;-82
2021/12/23 02:20:17;;;;;;;50.47;30.48;;;;;;;-7.77;100.00;93923.66;5031550;28;20080;-82
2021/12/23 02:22:45;;;;;;;55.08;32.78;;;;;;;-8.28;100.00;93836.53;5030895;28;20042;-82
2021/12/23 02:25:13;;;;;;;52.42;30.38;;;;;;;-7.95;100.00;93920.44;5021014;28;20065;-82
2021/12/23 02:27:41;;;;;;;62.03;36.47;;;;;;;-8.67;100.00;93831.88;5030899;28;20598;-83
2021/12/23 02:30:11;;;;;;;66.22;37.97;;;;;;;-8.02;100.00;93917.44;5030835;28;20060;-82
2021/12/23 02:32:39;;;;;;;66.68;40.83;;;;;;;-7.97;100.00;93917.22;5030373;28;20060;-82
2021/12/23 02:35:10;;;;;;;78.68;43.10;;;;;;;-8.51;100.00;93818.59;5031130;28;20128;-80
2021/12/23 02:37:39;;;;;;;61.85;36.17;;;;;;;-7.98;100.00;93896.47;5030990;28;20060;-81
2021/12/23 02:40:07;;;;;;;55.03;31.23;;;;;;;-8.18;100.00;93855.91;5031078;28;20073;-81
2021/12/23 02:42:34;;;;;;;53.83;29.38;;;;;;;-8.19;100.00;93856.00;5031097;28;20481;-81
2021/12/23 02:45:04;;;;;;;47.03;24.95;;;;;;;-8.03;100.00;93880.94;5030485;28;20057;-80
2021/12/23 02:47:31;;;;;;;39.05;22.63;;;;;;;-7.76;100.00;93910.28;5030995;28;20046;-80
2021/12/23 02:49:58;;;;;;;29.58;16.25;;;;;;;-7.80;100.00;93911.34;5030173;28;20065;-80
2021/12/23 02:52:25;;;;;;;27.13;15.43;;;;;;;-8.02;100.00;93891.72;5030574;28;20049;-80
2021/12/23 02:54:57;;;;;;;23.70;14.40;;;;;;;-7.85;100.00;93919.06;5030694;28;20048;-81
2021/12/23 02:57:25;;;;;;;23.33;15.05;;;;;;;-8.26;100.00;93848.03;5030448;28;20045;-80
2021/12/23 02:59:52;;;;;;;28.50;17.02;;;;;;;-8.25;100.00;93844.66;5030286;28;20077;-81
2021/12/23 03:02:19;;;;;;;28.15;17.60;;;;;;;-8.03;100.00;93872.63;5030632;28;20049;-80
2021/12/23 03:04:46;;;;;;;27.08;17.08;;;;;;;-7.97;100.00;93875.63;5030733;28;20056;-81
2021/12/23 03:07:12;;;;;;;31.58;18.88;;;;;;;-7.84;100.00;93895.72;5030290;28;20037;-80
2021/12/23 03:09:39;;;;;;;29.15;17.92;;;;;;;-7.86;100.00;93901.69;5029889;28;20050;-81
2021/12/23 03:12:08;;;;;;;29.55;18.92;;;;;;;-8.07;100.00;93874.50;5030188;28;20045;-80
2021/12/23 03:14:35;;;;;;;31.35;19.15;;;;;;;-8.18;100.00;93850.13;5030057;28;20045;-80
2021/12/23 03:17:02;;;;;;;33.63;20.55;;;;;;;-8.16;100.00;93855.03;5029995;28;20041;-80
2021/12/23 03:19:29;;;;;;;33.80;20.13;;;;;;;-7.96;100.00;93891.41;5030277;28;20042;-80
2021/12/23 03:21:56;;;;;;;37.78;23.25;;;;;;;-7.94;100.00;93887.13;5029950;28;20037;-80
2021/12/23 03:24:23;;;;;;;36.08;23.02;;;;;;;-7.93;100.00;93888.72;5030208;28;20041;-80
2021/12/23 03:26:50;;;;;;;38.13;24.23;;;;;;;-8.25;100.00;93839.66;5030198;28;20743;-80
2021/12/23 03:29:19;;;;;;;32.30;19.50;;;;;;;-8.26;100.00;93847.22;5029721;28;20050;-80
2021/12/23 03:31:46;;;;;;;28.40;16.50;;;;;;;-7.96;100.00;93896.38;5030176;28;20046;-80
2021/12/23 03:34:12;;;;;;;26.45;15.35;;;;;;;-8.00;100.00;93897.41;5029757;28;20049;-81
2021/12/23 03:36:40;;;;;;;26.52;15.48;;;;;;;-8.21;100.00;93871.03;5029794;28;20476;-82
2021/12/23 03:39:07;;;;;;;26.60;15.65;;;;;;;-8.27;100.00;93870.53;5029854;28;20049;-81
2021/12/23 03:41:34;;;;;;;24.63;15.07;;;;;;;-8.16;100.00;93897.41;5029724;28;20539;-81
2021/12/23 03:44:01;;;;;;;28.25;15.20;;;;;;;-8.19;100.00;93895.88;5029653;28;20049;-81
2021/12/23 03:46:29;;;;;;;21.23;14.68;;;;;;;-8.22;100.00;93894.34;5029774;28;20044;-81
2021/12/23 03:48:56;;;;;;;27.50;18.45;;;;;;;-8.51;100.00;93855.97;5029762;28;20370;-80
2021/12/23 03:51:23;;;;;;;29.58;20.60;;;;;;;-8.60;100.00;93865.53;5029802;28;20053;-81
2021/12/23 03:53:50;;;;;;;38.50;21.48;;;;;;;-8.52;100.00;93897.53;5029783;28;20041;-80
2021/12/23 03:56:18;;;;;;;49.15;27.17;;;;;;;-8.57;100.00;93878.75;5029390;28;20053;-82
2021/12/23 03:58:45;;;;;;;51.45;28.75;;;;;;;-8.66;100.00;93870.03;5029403;28;20057;-82
2021/12/23 04:01:12;;;;;;;38.15;22.42;;;;;;;-8.94;100.00;93824.13;5029519;28;20041;-81
2021/12/23 04:03:41;;;;;;;37.38;22.75;;;;;;;-8.49;100.00;93899.03;5029341;28;20045;-82
2021/12/23 04:06:08;;;;;;;40.83;24.67;;;;;;;-8.48;100.00;93885.72;5029395;28;20052;-81
2021/12/23 04:08:35;;;;;;;36.97;22.38;;;;;;;-8.99;100.00;93822.66;5029231;28;20049;-81
2021/12/23 04:11:02;;;;;;;39.13;23.30;;;;;;;-8.49;100.00;93904.84;5029261;28;20045;-81
2021/12/23 04:13:29;;;;;;;42.00;23.50;;;;;;;-8.66;100.00;93882.50;5029107;28;20448;-81
2021/12/23 04:15:56;;;;;;;38.67;24.15;;;;;;;-9.23;100.00;93829.63;5029011;28;20046;-83
2021/12/23 04:18:23;;;;;;;34.05;21.38;;;;;;;-9.40;100.00;93808.88;5030085;28;20052;-82
2021/12/23 04:20:54;;;;;;;34.38;21.00;;;;;;;-8.99;100.00;93879.09;5029928;28;20041;-81
2021/12/23 04:23:22;;;;;;;36.90;21.80;;;;;;;-9.11;100.00;93858.09;5029134;28;20045;-81
2021/12/23 04:25:49;;;;;;;35.08;21.38;;;;;;;-9.05;100.00;93877.72;5029506;28;20132;-81
2021/12/23 04:28:16;;;;;;;36.40;22.92;;;;;;;-8.81;100.00;93922.22;5029022;28;20064;-81
2021/12/23 04:30:43;;;;;;;37.15;23.05;;;;;;;-9.27;100.00;93843.91;5029171;28;20389;-82
2021/12/23 04:33:11;;;;;;;38.33;23.55;;;;;;;-8.79;100.00;93907.19;5029404;28;20049;-82
2021/12/23 04:35:38;;;;;;;40.70;26.25;;;;;;;-8.76;100.00;93907.03;5029096;28;20571;-82
2021/12/23 04:38:06;;;;;;;45.85;28.95;;;;;;;-8.83;100.00;93886.63;5029324;28;20045;-82
2021/12/23 04:40:34;;;;;;;47.38;29.60;;;;;;;-8.60;100.00;93915.34;5029162;28;20049;-82
2021/12/23 04:43:02;;;;;;;47.00;30.50;;;;;;;-8.88;100.00;93873.59;5029257;28;20045;-82
2021/12/23 04:45:29;;;;;;;49.55;27.02;;;;;;;-9.63;100.00;93755.25;5029265;28;20428;-82
2021/12/23 04:47:56;;;;;;;39.58;24.35;;;;;;;-8.67;100.00;93911.56;5029194;28;20068;-82
2021/12/23 04:50:23;;;;;;;37.58;21.67;;;;;;;-8.82;100.00;93884.94;5028920;28;20049;-82
2021/12/23 04:52:51;;;;;;;38.03;22.27;;;;;;;-8.86;100.00;93880.13;5029308;28;20045;-82
2021/12/23 04:55:20;;;;;;;41.90;28.23;;;;;;;-8.91;100.00;93867.09;5028988;28;20080;-81
2021/12/23 04:57:47;;;;;;;39.28;23.52;;;;;;;-8.97;100.00;93887.31;5028850;28;20048;-81
2021/12/23 05:00:16;;;;;;;42.80;25.75;;;;;;;-8.87;100.00;93922.50;5028758;28;20056;-81
2021/12/23 05:02:43;;;;;;;43.80;25.35;;;;;;;-9.01;100.00;93900.78;5028797;28;20396;-81
2021/12/23 05:05:11;;;;;;;43.75;25.35;;;;;;;-9.24;100.00;93847.13;5028773;28;20050;-81
2021/12/23 05:07:38;;;;;;;43.25;27.45;;;;;;;-9.19;100.00;93865.13;5028602;28;20061;-81
2021/12/23 05:10:07;;;;;;;35.83;23.23;;;;;;;-8.85;100.00;93898.34;5029195;28;20054;-81
2021/12/23 05:12:42;;;;;;;27.55;17.60;;;;;;;-9.44;100.00;93809.88;5028921;28;20041;-82
2021/12/23 05:15:10;;;;;;;26.85;15.60;;;;;;;-8.95;100.00;93880.56;5028850;28;20053;-81
2021/12/23 05:17:37;;;;;;;35.08;18.42;;;;;;;-8.82;100.00;93913.13;5029003;28;20397;-81
2021/12/23 05:20:05;;;;;;;46.38;23.90;;;;;;;-8.90;100.00;93908.53;5028934;28;20108;-81
2021/12/23 05:22:31;;;;;;;42.05;23.85;;;;;;;-9.05;100.00;93867.75;5028597;28;20496;-81
2021/12/23 05:24:58;;;;;;;102.15;42.25;;;;;;;-9.52;100.00;93802.00;5028724;28;20049;-80
2021/12/23 05:27:25;;;;;;;66.93;33.17;;;;;;;-9.07;100.00;93868.72;5029841;28;20046;-80
2021/12/23 05:29:54;;;;;;;70.70;36.67;;;;;;;-9.10;100.00;93862.19;5032235;28;20107;-81
2021/12/23 05:32:21;;;;;;;64.55;32.17;;;;;;;-9.10;100.00;93856.41;5032035;28;20053;-81
2021/12/23 05:34:47;;;;;;;48.22;25.60;;;;;;;-9.50;100.00;93795.25;5032337;28;20046;-81
2021/12/23 05:37:14;;;;;;;35.72;20.33;;;;;;;-8.83;100.00;93900.75;5031953;28;20037;-80
2021/12/23 05:39:41;;;;;;;27.13;15.63;;;;;;;-9.13;100.00;93858.19;5032049;28;20397;-80
2021/12/23 05:42:09;;;;;;;20.13;12.88;;;;;;;-8.85;100.00;93905.81;5032254;28;20396;-81
2021/12/23 05:44:35;;;;;;;23.15;15.65;;;;;;;-9.15;100.00;93869.09;5031818;28;20052;-81
2021/12/23 05:47:04;;;;;;;22.50;14.50;;;;;;;-9.16;100.00;93862.50;5031812;28;20048;-82
2021/12/23 05:49:31;;;;;;;22.85;15.27;;;;;;;-9.37;100.00;93844.44;5031632;28;20050;-81
2021/12/23 05:51:59;;;;;;;28.38;16.77;;;;;;;-9.54;100.00;93836.88;5032090;28;20041;-82
2021/12/23 05:54:26;;;;;;;27.67;17.15;;;;;;;-9.22;100.00;93881.00;5031904;28;20042;-81
2021/12/23 05:56:53;;;;;;;27.17;16.27;;;;;;;-9.28;100.00;93879.63;5031991;28;20045;-80
2021/12/23 05:59:19;;;;;;;33.10;20.40;;;;;;;-9.41;100.00;93838.78;5031620;28;20037;-80
2021/12/23 06:01:46;;;;;;;30.20;19.83;;;;;;;-9.22;100.00;93870.25;5031454;28;20050;-82
2021/12/23 06:04:15;;;;;;;30.42;17.52;;;;;;;-8.93;100.00;93911.19;5031951;28;20080;-82
2021/12/23 06:06:42;;;;;;;20.45;12.75;;;;;;;-9.03;100.00;93910.00;5031278;28;20080;-82
2021/12/23 06:09:09;;;;;;;20.73;11.68;;;;;;;-8.94;100.00;93914.53;5031272;28;20591;-83
2021/12/23 06:11:35;;;;;;;22.75;13.35;;;;;;;-8.99;100.00;93911.44;5031242;28;20401;-83
2021/12/23 06:14:02;;;;;;;24.80;12.20;;;;;;;-8.99;100.00;93919.72;5031509;28;20045;-82
2021/12/23 06:16:29;;;;;;;20.73;10.25;;;;;;;-8.97;100.00;93929.63;5031461;28;20153;-83
2021/12/23 06:18:56;;;;;;;19.92;10.80;;;;;;;-9.68;100.00;93820.13;5031557;28;20477;-82
2021/12/23 06:21:27;;;;;;;20.38;12.10;;;;;;;-9.56;100.00;93825.41;5027224;28;20073;-83
2021/12/23 06:23:55;;;;;;;27.13;17.30;;;;;;;-9.50;100.00;93852.47;5030276;28;20064;-84
2021/12/23 06:26:22;;;;;;;28.48;17.13;;;;;;;-9.21;100.00;93894.25;5031158;28;20128;-84
2021/12/23 06:28:49;;;;;;;29.15;18.38;;;;;;;-9.89;100.00;93801.25;5031794;28;20144;-84
2021/12/23 06:31:16;;;;;;;40.03;21.02;;;;;;;-9.63;100.00;93837.31;5031483;28;20060;-84
2021/12/23 06:33:43;;;;;;;39.72;22.23;;;;;;;-9.49;100.00;93843.34;5031133;28;20567;-84
2021/12/23 06:36:13;;;;;;;41.47;24.80;;;;;;;-9.02;100.00;93914.88;5031128;28;20041;-84
2021/12/23 06:38:42;;;;;;;43.95;25.58;;;;;;;-9.44;100.00;93833.97;5030421;28;20710;-82
2021/12/23 06:41:09;;;;;;;41.30;25.27;;;;;;;-9.01;100.00;93888.31;5030921;28;20417;-83
2021/12/23 06:43:36;;;;;;;46.63;26.83;;;;;;;-8.83;100.00;93906.56;5030929;28;20133;-84
2021/12/23 06:46:03;;;;;;;51.78;31.00;;;;;;;-8.91;100.00;93881.22;5030922;28;20049;-82
2021/12/23 06:48:30;;;;;;;59.67;34.15;;;;;;;-8.79;100.00;93895.56;5030837;28;20053;-82
2021/12/23 06:50:57;;;;;;;67.00;40.67;;;;;;;-9.20;100.00;93816.25;5030805;28;20053;-81
2021/12/23 06:53:25;;;;;;;89.93;50.05;;;;;;;-8.42;100.00;93924.47;5030766;28;20059;-83
2021/12/23 06:55:55;;;;;;;105.25;63.15;;;;;;;-8.67;100.00;93866.75;5030646;28;20045;-83
2021/12/23 06:58:23;;;;;;;75.03;46.65;;;;;;;-8.36;100.00;93911.69;5030891;28;20053;-83
2021/12/23 07:00:51;;;;;;;81.63;52.45;;;;;;;-9.13;100.00;93793.47;5030351;28;20049;-83
2021/12/23 07:03:18;;;;;;;87.07;56.63;;;;;;;-8.34;100.00;93885.81;5030519;28;20049;-83
2021/12/23 07:05:45;;;;;;;80.72;46.95;;;;;;;-8.01;100.00;93914.06;5030809;28;20396;-82
2021/12/23 07:08:24;;;;;;;68.82;41.97;;;;;;;-8.65;100.00;93814.38;5030840;28;20050;-83
2021/12/23 07:10:54;;;;;;;77.97;44.60;;;;;;;-7.93;100.00;93908.66;5030298;28;20049;-84
2021/12/23 07:13:20;;;;;;;98.70;54.55;;;;;;;-8.12;100.00;93888.88;5030195;28;20163;-83
2021/12/23 07:15:48;;;;;;;82.25;49.08;;;;;;;-7.81;100.00;93908.06;5030297;28;20072;-84
2021/12/23 07:18:15;;;;;;;105.32;60.65;;;;;;;-7.98;100.00;93880.69;5029865;28;20839;-84
2021/12/23 07:20:42;;;;;;;105.30;57.15;;;;;;;-7.66;100.00;93906.44;5030004;28;20041;-84
2021/12/23 07:23:09;;;;;;;660.22;312.95;;;;;;;-8.37;100.00;93918.38;5030154;28;20133;-83
2021/12/23 07:25:36;;;;;;;112.25;52.63;;;;;;;-8.29;100.00;93925.44;5029813;28;20046;-83
2021/12/23 07:28:04;;;;;;;291.83;116.47;;;;;;;-8.70;100.00;93895.97;5029776;28;20037;-83
2021/12/23 07:30:31;;;;;;;401.33;179.55;;;;;;;-8.85;100.00;93923.22;5030146;28;20045;-83
2021/12/23 07:33:00;;;;;;;160.25;75.50;;;;;;;-8.83;100.00;93930.63;5030064;28;20413;-83
2021/12/23 07:35:27;;;;;;;167.27;85.38;;;;;;;-8.81;100.00;93919.72;5029753;28;20092;-83
2021/12/23 07:37:57;;;;;;;173.55;87.05;;;;;;;-8.83;100.00;93904.06;5029767;28;20049;-84
2021/12/23 07:40:24;;;;;;;116.03;59.83;;;;;;;-8.55;100.00;93925.13;5029871;28;20076;-85
2021/12/23 07:42:56;;;;;;;73.03;36.20;;;;;;;-9.10;100.00;93837.31;5029541;28;20075;-85
2021/12/23 07:45:27;;;;;;;69.13;32.60;;;;;;;-8.49;100.00;93919.78;5029800;28;20091;-86
2021/12/23 07:47:54;;;;;;;71.78;32.42;;;;;;;-8.20;100.00;93934.16;5029793;28;20080;-85
2021/12/23 07:50:22;;;;;;;92.70;42.30;;;;;;;-8.70;100.00;93859.44;5028717;28;20056;-84
2021/12/23 07:52:49;;;;;;;98.07;43.60;;;;;;;-8.59;100.00;93876.31;5029655;28;20505;-83
2021/12/23 07:55:16;;;;;;;97.88;44.03;;;;;;;-8.39;100.00;93919.34;5029769;28;20051;-81
2021/12/23 07:57:43;;;;;;;98.68;46.25;;;;;;;-8.49;100.00;93884.91;5029588;28;20042;-83
2021/12/23 08:00:11;;;;;;;108.15;49.00;;;;;;;-8.04;100.00;93931.69;5029511;28;20053;-83
2021/12/23 08:02:39;;;;;;;98.30;48.40;;;;;;;-7.94;100.00;93934.50;5029231;28;20512;-84
2021/12/23 08:05:07;;;;;;;92.30;41.63;;;;;;;-8.12;100.00;93902.16;5029487;28;20053;-83
2021/12/23 08:07:34;;;;;;;91.25;42.25;;;;;;;-7.76;100.00;93930.25;5029444;28;20128;-83
2021/12/23 08:10:01;;;;;;;97.10;43.92;;;;;;;-7.47;100.00;93924.56;5029183;28;20060;-84
2021/12/23 08:12:28;;;;;;;97.50;43.25;;;;;;;-7.33;100.00;93891.41;5029087;28;20045;-84
2021/12/23 08:14:54;;;;;;;106.55;47.60;;;;;;;-7.31;100.00;93922.06;5029586;28;20128;-86
2021/12/23 08:17:21;;;;;;;91.70;41.15;;;;;;;-7.90;100.00;93803.78;5029286;28;20511;-87
2021/12/23 08:19:50;;;;;;;93.90;40.80;;;;;;;-7.54;100.00;93859.25;5029386;28;20050;-88
2021/12/23 08:22:17;;;;;;;86.53;38.35;;;;;;;-7.32;100.00;93866.34;5029345;28;20064;-86
2021/12/23 08:24:43;;;;;;;95.88;41.60;;;;;;;-6.89;100.00;93927.28;5029506;28;20049;-87
2021/12/23 08:27:10;;;;;;;84.55;38.17;;;;;;;-7.49;100.00;93834.84;5029186;28;20089;-87
2021/12/23 08:29:37;;;;;;;66.70;34.60;;;;;;;-7.06;100.00;93870.78;5029321;28;20160;-86
2021/12/23 08:32:05;;;;;;;72.95;33.85;;;;;;;-6.99;100.00;93852.84;5029236;28;20059;-86
2021/12/23 08:34:34;;;;;;;78.78;36.28;;;;;;;-6.98;100.00;93851.19;5009424;28;20049;-87
2021/12/23 08:37:06;;;;;;;69.20;34.47;;;;;;;-7.01;100.00;93829.69;5007784;28;20100;-86
2021/12/23 08:39:34;;;;;;;69.80;33.70;;;;;;;-6.17;100.00;93914.03;5026640;28;20119;-86
2021/12/23 08:42:01;;;;;;;68.68;35.38;;;;;;;-5.91;100.00;93909.16;5018524;28;20060;-86
2021/12/23 08:44:28;;;;;;;80.65;39.00;;;;;;;-6.74;100.00;93800.69;5029143;28;20044;-85
2021/12/23 08:46:55;;;;;;;89.88;35.53;;;;;;;-6.55;100.00;93844.56;5029242;28;20042;-85
2021/12/23 08:49:22;;;;;;;96.03;43.53;;;;;;;-6.35;100.00;93860.91;5028921;28;20056;-86
2021/12/23 08:51:48;;;;;;;87.38;40.80;;;;;;;-6.17;100.00;93869.81;5029076;28;20080;-86
2021/12/23 08:54:17;;;;;;;80.40;40.13;;;;;;;-5.93;100.00;93903.44;5029143;28;20045;-85
2021/12/23 08:56:44;;;;;;;74.88;36.97;;;;;;;-6.05;100.00;93880.81;5029089;28;20396;-86
2021/12/23 08:59:12;;;;;;;81.68;37.25;;;;;;;-5.72;100.00;93893.00;5029035;28;20052;-86
2021/12/23 09:01:40;;;;;;;80.18;38.85;;;;;;;-6.04;100.00;93822.38;5030258;28;20038;-85
2021/12/23 09:04:07;;;;;;;78.18;37.35;;;;;;;-5.74;100.00;93862.28;5032780;28;20041;-86
2021/12/23 09:06:34;;;;;;;75.78;36.60;;;;;;;-5.34;100.00;93876.53;5032742;28;20041;-84
2021/12/23 09:09:01;;;;;;;71.80;35.13;;;;;;;-5.29;100.00;93867.81;5032442;28;20128;-84
2021/12/23 09:11:30;;;;;;;72.20;36.33;;;;;;;-5.19;100.00;93845.50;5032638;28;20049;-84
2021/12/23 09:13:57;;;;;;;80.18;38.40;;;;;;;-5.21;100.00;93869.84;5032225;28;20038;-84
2021/12/23 09:16:24;;;;;;;81.25;38.55;;;;;;;-5.05;100.00;93864.66;5032546;28;20063;-84
2021/12/23 09:18:51;;;;;;;82.22;38.33;;;;;;;-5.14;100.00;93833.47;5032503;28;20042;-85
2021/12/23 09:21:18;;;;;;;66.50;33.47;;;;;;;-5.99;99.76;93718.69;5032260;28;20054;-84
2021/12/23 09:23:45;;;;;;;68.38;33.53;;;;;;;-5.40;100.00;93783.38;5032179;28;20041;-84
2021/12/23 09:26:12;;;;;;;96.55;49.03;;;;;;;-5.07;100.00;93793.00;5032353;28;20047;-84
2021/12/23 09:28:54;;;;;;;71.30;38.20;;;;;;;-4.48;100.00;93822.56;5032092;28;20134;-83
2021/12/23 09:34:06;;;;;;;68.63;31.42;;;;;;;-4.11;99.83;93820.94;5022830;28;20069;-84
2021/12/23 09:36:33;;;;;;;61.65;27.00;;;;;;;-4.62;100.00;93755.78;5012141;28;20053;-83
2021/12/23 09:39:00;;;;;;;67.72;34.30;;;;;;;-4.14;99.97;93811.13;5012471;28;20052;-84
2021/12/23 09:41:28;;;;;;;63.10;32.22;;;;;;;-4.05;99.84;93813.00;5021109;28;20041;-83
2021/12/23 09:44:01;;;;;;;62.38;31.65;;;;;;;-4.10;98.04;93825.88;5031804;28;20061;-84
2021/12/23 09:46:31;;;;;;;55.47;27.35;;;;;;;-4.89;100.00;93716.63;5032075;28;20077;-84
2021/12/23 09:49:00;;;;;;;58.72;34.40;;;;;;;-4.51;99.53;93790.16;5031921;28;20049;-85
2021/12/23 09:51:29;;;;;;;60.40;31.80;;;;;;;-4.27;100.00;93819.47;5031968;28;20041;-83
2021/12/23 09:53:59;;;;;;;63.90;33.03;;;;;;;-4.68;100.00;93730.31;5032457;28;20180;-85
2021/12/23 09:56:26;;;;;;;60.92;32.33;;;;;;;-4.78;99.53;93695.84;5031461;28;20043;-84
2021/12/23 09:59:02;;;;;;;54.30;29.42;;;;;;;-4.95;100.00;93649.41;5031458;28;20048;-85
2021/12/23 10:01:31;;;;;;;59.60;26.20;;;;;;;-3.78;100.00;93802.78;5031128;28;20535;-86
2021/12/23 10:03:58;;;;;;;58.55;25.17;;;;;;;-4.10;99.41;93745.59;5031670;28;20077;-85
2021/12/23 10:06:26;;;;;;;52.20;28.17;;;;;;;-3.85;98.85;93783.22;5031508;28;20690;-84
2021/12/23 10:08:53;;;;;;;55.17;27.42;;;;;;;-3.69;98.52;93788.78;5031099;28;20124;-84
2021/12/23 10:11:28;;;;;;;53.42;29.05;;;;;;;-3.81;98.56;93767.00;5031488;28;20382;-84
2021/12/23 10:30:43;;;;;;;52.15;28.65;;;;;;;-3.43;99.19;93720.78;5005297;28;20499;-85
2021/12/23 10:38:50;;;;;;;53.78;27.85;;;;;;;-2.83;98.79;93742.41;5019267;28;20092;-86
2021/12/23 10:41:21;;;;;;;45.20;24.48;;;;;;;-2.99;98.27;93708.41;5020511;28;20563;-86
2021/12/23 10:43:49;;;;;;;48.30;24.85;;;;;;;-2.77;97.94;93723.56;5021538;28;20081;-86
2021/12/23 10:46:22;;;;;;;39.15;21.42;;;;;;;-2.72;95.09;93734.88;5020081;28;20045;-86
2021/12/23 10:48:59;;;;;;;36.03;18.88;;;;;;;-2.43;89.27;93746.97;5018774;28;20074;-87
2021/12/23 10:51:26;;;;;;;41.03;21.00;;;;;;;-3.04;91.22;93642.59;5018051;28;20497;-87
2021/12/23 10:54:14;;;;;;;45.80;23.05;;;;;;;-2.49;93.61;93709.72;5021299;28;20044;-87
2021/12/23 10:59:27;;;;;;;50.90;25.17;;;;;;;-2.84;94.66;93620.16;5021002;28;20130;-88
2021/12/23 11:02:16;;;;;;;20.45;9.98;;;;;;;-2.35;83.11;93652.50;5021247;28;20064;-88
2021/12/23 11:05:07;;;;;;;8.93;5.18;;;;;;;-2.19;84.40;93642.00;5021419;28;20052;-88
2021/12/23 11:07:58;;;;;;;58.65;25.70;;;;;;;-1.48;83.20;93716.22;5019582;28;20498;-89
2021/12/23 11:10:52;;;;;;;15.88;8.27;;;;;;;-1.81;82.24;93640.69;5016359;28;20042;-89
2021/12/23 11:28:51;;;;;;;44.20;21.33;;;;;;;-1.36;80.61;93616.94;5022269;28;20480;-90
2021/12/23 11:40:11;;;;;;;23.50;11.70;;;;;;;-0.55;80.99;93677.56;5018004;28;20128;-85
2021/12/23 11:43:02;;;;;;;10.48;5.40;;;;;;;-0.48;80.21;93676.09;5030315;28;20496;-85
2021/12/23 11:45:30;;;;;;;13.98;8.00;;;;;;;-0.48;81.17;93667.72;5010429;28;20053;-85
2021/12/23 11:48:05;;;;;;;23.80;10.25;;;;;;;-0.95;80.11;93609.38;5010748;28;20418;-85
2021/12/23 11:50:42;;;;;;;23.63;13.30;;;;;;;-0.81;79.37;93603.16;5010361;28;20061;-85
2021/12/23 11:53:10;;;;;;;14.90;8.68;;;;;;;-0.58;79.10;93637.44;5010176;28;20481;-84
2021/12/23 11:55:42;;;;;;;15.35;9.02;;;;;;;-0.34;78.82;93658.97;5008788;28;20085;-83
2021/12/23 11:58:09;;;;;;;12.25;5.80;;;;;;;-0.35;79.88;93660.72;5010530;28;20049;-83
2021/12/23 12:00:42;;;;;;;34.63;14.40;;;;;;;-0.35;78.28;93663.25;5010001;28;20565;-82
2021/12/23 12:03:11;;;;;;;18.38;10.00;;;;;;;-0.54;80.01;93629.47;5010701;28;20049;-82
2021/12/23 12:05:41;;;;;;;20.02;9.32;;;;;;;-0.61;78.08;93618.31;5010023;28;20140;-82
2021/12/23 12:08:10;;;;;;;12.57;6.28;;;;;;;-0.36;78.98;93651.56;5010498;28;20049;-82
2021/12/23 12:10:40;;;;;;;15.18;7.97;;;;;;;-0.54;77.95;93623.63;5010182;28;20061;-82
2021/12/23 12:13:09;;;;;;;10.07;5.88;;;;;;;-0.92;76.94;93575.53;5009508;28;20124;-82
2021/12/23 12:15:47;;;;;;;24.15;13.70;;;;;;;-0.34;76.75;93657.25;5010186;28;20116;-81